Time;durP1;ratioP1;P1;durP2;ratioP2;P2;SDS_P1;SDS_P2;PMS_P1;PMS_P2;Temp;Humidity;BMP_temperature;BMP_pressure;BME280_temperature;BME280_humidity;BME280_pressure;Samples;Min_cycle;Max_cycle;Signal;HPM_P1;HPM_P2
2022/07/11 00:01:45;;;;;;;6.95;2.20;;;;;;;;;;5051954;28;20383;-77
2022/07/11 00:04:11;;;;;;;9.73;2.40;;;;;;;;;;5032288;28;20044;-77
2022/07/11 00:06:37;;;;;;;6.43;2.00;;;;;;;;;;5028716;28;20047;-77
2022/07/11 00:09:04;;;;;;;8.25;2.58;;;;;;;;;;5053535;28;20119;-77
2022/07/11 00:11:30;;;;;;;7.82;2.20;;;;;;;;;;5050807;28;20049;-77
2022/07/11 00:13:56;;;;;;;9.07;2.42;;;;;;;;;;5052373;28;20037;-77
2022/07/11 00:16:22;;;;;;;7.72;2.42;;;;;;;;;;5053299;28;20049;-77
2022/07/11 00:18:48;;;;;;;7.32;2.50;;;;;;;;;;5051655;28;20144;-77
2022/07/11 00:21:14;;;;;;;8.93;2.67;;;;;;;;;;5050325;28;20041;-77
2022/07/11 00:23:40;;;;;;;7.07;2.28;;;;;;;;;;5034803;28;20127;-77
2022/07/11 00:26:06;;;;;;;7.32;2.67;;;;;;;;;;5048988;28;20123;-77
2022/07/11 00:28:32;;;;;;;7.47;2.60;;;;;;;;;;5051172;28;20041;-77
2022/07/11 00:30:58;;;;;;;9.68;2.55;;;;;;;;;;5034718;28;20056;-77
2022/07/11 00:33:24;;;;;;;9.50;2.42;;;;;;;;;;5053073;28;20526;-77
2022/07/11 00:35:50;;;;;;;9.32;2.75;;;;;;;;;;5033825;28;20056;-77
2022/07/11 00:38:16;;;;;;;6.90;2.40;;;;;;;;;;5053155;28;20052;-77
2022/07/11 00:40:42;;;;;;;9.80;2.83;;;;;;;;;;5052039;28;20055;-76
2022/07/11 00:43:08;;;;;;;7.70;2.40;;;;;;;;;;5052042;28;20049;-76
2022/07/11 00:45:34;;;;;;;8.77;2.42;;;;;;;;;;5052088;28;20124;-76
2022/07/11 00:48:00;;;;;;;9.68;2.60;;;;;;;;;;5050823;28;20060;-77
2022/07/11 00:50:27;;;;;;;13.60;3.30;;;;;;;;;;5034344;28;20045;-77
2022/07/11 00:52:53;;;;;;;7.93;2.70;;;;;;;;;;5050813;28;20084;-77
2022/07/11 00:55:20;;;;;;;7.68;2.38;;;;;;;;;;5033530;28;20059;-77
2022/07/11 00:57:46;;;;;;;8.57;2.42;;;;;;;;;;5049417;28;20041;-76
2022/07/11 01:00:13;;;;;;;6.93;2.60;;;;;;;;;;5023803;28;20045;-76
2022/07/11 01:02:39;;;;;;;8.45;2.60;;;;;;;;;;5054686;28;20048;-77
2022/07/11 01:05:05;;;;;;;7.70;2.50;;;;;;;;;;5054583;28;20528;-76
2022/07/11 01:07:33;;;;;;;8.50;2.72;;;;;;;;;;5055312;28;20041;-76
2022/07/11 01:09:59;;;;;;;7.20;2.42;;;;;;;;;;5055581;28;20041;-76
2022/07/11 01:12:25;;;;;;;8.65;2.45;;;;;;;;;;5055268;28;20086;-76
2022/07/11 01:14:52;;;;;;;5.82;2.22;;;;;;;;;;5056713;28;20045;-76
2022/07/11 01:17:18;;;;;;;8.57;2.35;;;;;;;;;;5053101;28;20045;-75
2022/07/11 01:19:44;;;;;;;6.00;2.35;;;;;;;;;;5055311;28;20558;-76
2022/07/11 01:22:11;;;;;;;7.45;2.40;;;;;;;;;;5033831;28;20128;-76
2022/07/11 01:24:37;;;;;;;8.38;2.30;;;;;;;;;;5055930;28;20087;-76
2022/07/11 01:27:04;;;;;;;7.00;2.40;;;;;;;;;;5060938;28;20556;-77
2022/07/11 01:29:30;;;;;;;7.43;2.35;;;;;;;;;;5053420;28;20090;-76
2022/07/11 01:31:56;;;;;;;8.32;2.50;;;;;;;;;;5055192;28;20045;-77
2022/07/11 01:34:22;;;;;;;6.95;2.15;;;;;;;;;;5054882;28;20048;-76
2022/07/11 01:36:48;;;;;;;7.95;2.13;;;;;;;;;;5036886;28;20049;-76
2022/07/11 01:39:14;;;;;;;8.25;2.00;;;;;;;;;;5056257;28;20125;-76
2022/07/11 01:41:40;;;;;;;7.95;2.08;;;;;;;;;;5055352;28;20069;-76
2022/07/11 01:44:06;;;;;;;7.25;2.35;;;;;;;;;;5055923;28;20640;-76
2022/07/11 01:46:32;;;;;;;8.27;1.80;;;;;;;;;;5055937;28;20084;-76
2022/07/11 01:48:58;;;;;;;7.50;2.15;;;;;;;;;;5051880;28;20048;-75
2022/07/11 01:51:25;;;;;;;8.23;2.03;;;;;;;;;;5055176;28;20063;-76
2022/07/11 01:53:52;;;;;;;10.55;2.47;;;;;;;;;;5054765;28;20041;-76
2022/07/11 01:56:18;;;;;;;4.82;1.80;;;;;;;;;;5036860;28;20037;-76
2022/07/11 01:58:44;;;;;;;7.97;1.70;;;;;;;;;;5053304;28;20099;-77
2022/07/11 02:01:10;;;;;;;7.93;1.92;;;;;;;;;;5053781;28;20527;-77
2022/07/11 02:03:37;;;;;;;8.27;1.77;;;;;;;;;;5052677;28;20479;-77
2022/07/11 02:06:03;;;;;;;8.60;1.90;;;;;;;;;;5053828;28;20055;-77
2022/07/11 02:08:29;;;;;;;6.82;1.98;;;;;;;;;;5037839;28;20073;-77
2022/07/11 02:10:55;;;;;;;6.75;1.70;;;;;;;;;;5053900;28;20072;-77
2022/07/11 02:13:23;;;;;;;8.68;1.90;;;;;;;;;;5037238;28;20045;-77
2022/07/11 02:15:50;;;;;;;5.38;1.70;;;;;;;;;;5054880;28;20041;-76
2022/07/11 02:18:17;;;;;;;9.15;1.90;;;;;;;;;;5051523;28;20076;-77
2022/07/11 02:20:45;;;;;;;6.15;1.73;;;;;;;;;;5034079;28;20120;-77
2022/07/11 02:23:12;;;;;;;6.05;1.90;;;;;;;;;;5055595;28;20049;-77
2022/07/11 02:25:38;;;;;;;5.22;1.65;;;;;;;;;;5055251;28;20042;-77
2022/07/11 02:28:05;;;;;;;5.30;1.80;;;;;;;;;;5054671;28;20057;-76
2022/07/11 02:30:32;;;;;;;7.55;1.83;;;;;;;;;;5054746;28;20671;-76
2022/07/11 02:32:58;;;;;;;7.78;1.98;;;;;;;;;;5033701;28;20507;-77
2022/07/11 02:35:24;;;;;;;6.28;2.15;;;;;;;;;;5053321;28;20045;-76
2022/07/11 02:37:50;;;;;;;8.65;1.75;;;;;;;;;;5055225;28;20502;-77
2022/07/11 02:40:16;;;;;;;9.02;2.10;;;;;;;;;;5055064;28;20055;-76
2022/07/11 02:42:42;;;;;;;5.72;2.13;;;;;;;;;;5036572;28;20056;-76
2022/07/11 02:45:08;;;;;;;5.35;2.05;;;;;;;;;;5054218;28;20045;-76
2022/07/11 02:47:35;;;;;;;7.32;2.30;;;;;;;;;;5054839;28;20049;-77
2022/07/11 02:50:01;;;;;;;5.90;1.90;;;;;;;;;;5053675;28;20051;-77
2022/07/11 02:52:27;;;;;;;8.75;1.77;;;;;;;;;;5068108;28;20044;-77
2022/07/11 02:54:53;;;;;;;6.70;1.98;;;;;;;;;;5058220;28;20080;-76
2022/07/11 02:57:19;;;;;;;5.57;1.90;;;;;;;;;;5058721;28;20107;-76
2022/07/11 02:59:45;;;;;;;5.00;1.50;;;;;;;;;;5048308;28;20045;-77
2022/07/11 03:02:11;;;;;;;5.55;2.17;;;;;;;;;;5042248;28;20048;-77
2022/07/11 03:04:37;;;;;;;7.47;2.00;;;;;;;;;;5058491;28;20037;-77
2022/07/11 03:07:04;;;;;;;7.88;1.90;;;;;;;;;;5058750;28;20407;-77
2022/07/11 03:09:30;;;;;;;7.65;2.10;;;;;;;;;;5066213;28;20108;-77
2022/07/11 03:11:56;;;;;;;5.78;2.28;;;;;;;;;;5068943;28;20052;-77
2022/07/11 03:14:22;;;;;;;6.53;2.20;;;;;;;;;;5047991;28;20109;-76
2022/07/11 03:16:48;;;;;;;6.35;2.08;;;;;;;;;;5059608;28;20472;-77
2022/07/11 03:19:14;;;;;;;5.80;1.90;;;;;;;;;;5052004;28;20076;-77
2022/07/11 03:21:40;;;;;;;8.52;2.05;;;;;;;;;;5052297;28;21364;-77
2022/07/11 03:24:06;;;;;;;7.03;2.20;;;;;;;;;;5018941;28;20048;-77
2022/07/11 03:26:32;;;;;;;6.55;2.03;;;;;;;;;;5019951;28;20100;-77
2022/07/11 03:28:58;;;;;;;6.38;2.20;;;;;;;;;;5050104;28;20037;-77
2022/07/11 03:31:24;;;;;;;6.57;2.33;;;;;;;;;;5051986;28;20045;-77
2022/07/11 03:33:50;;;;;;;4.88;2.50;;;;;;;;;;5050263;28;20560;-77
2022/07/11 03:36:16;;;;;;;8.05;2.42;;;;;;;;;;5049884;28;20056;-77
2022/07/11 03:38:42;;;;;;;5.90;2.72;;;;;;;;;;5053384;28;20052;-77
2022/07/11 03:41:08;;;;;;;7.30;2.78;;;;;;;;;;5053630;28;20040;-77
2022/07/11 03:43:34;;;;;;;8.40;2.80;;;;;;;;;;5051234;28;20107;-76
2022/07/11 03:46:00;;;;;;;7.60;3.10;;;;;;;;;;5053044;28;20124;-77
2022/07/11 03:48:26;;;;;;;6.85;2.80;;;;;;;;;;5051982;28;20057;-77
2022/07/11 03:50:52;;;;;;;6.15;3.13;;;;;;;;;;5051142;28;20122;-77
2022/07/11 03:53:18;;;;;;;5.88;2.72;;;;;;;;;;5039113;28;20059;-77
2022/07/11 03:55:44;;;;;;;7.28;2.80;;;;;;;;;;5051857;28;20040;-76
2022/07/11 03:58:10;;;;;;;6.43;2.80;;;;;;;;;;5051313;28;20067;-77
2022/07/11 04:00:36;;;;;;;6.88;2.58;;;;;;;;;;5051314;28;20495;-77
2022/07/11 04:03:02;;;;;;;6.60;2.50;;;;;;;;;;5053376;28;20041;-76
2022/07/11 04:05:28;;;;;;;7.78;2.72;;;;;;;;;;5033582;28;20040;-76
2022/07/11 04:07:54;;;;;;;9.50;2.58;;;;;;;;;;5052301;28;20573;-76
2022/07/11 04:10:20;;;;;;;5.60;2.28;;;;;;;;;;5052236;28;20045;-76
2022/07/11 04:12:46;;;;;;;8.30;2.55;;;;;;;;;;5051106;28;20051;-76
2022/07/11 04:15:12;;;;;;;7.85;2.38;;;;;;;;;;5049793;28;20052;-76
2022/07/11 04:17:38;;;;;;;6.22;2.40;;;;;;;;;;5030887;28;20132;-76
2022/07/11 04:20:05;;;;;;;7.50;2.50;;;;;;;;;;5051745;28;20045;-76
2022/07/11 04:22:31;;;;;;;4.05;2.25;;;;;;;;;;5052450;28;20041;-76
2022/07/11 04:24:57;;;;;;;7.80;2.42;;;;;;;;;;5052873;28;20520;-76
2022/07/11 04:27:26;;;;;;;6.80;2.45;;;;;;;;;;5050645;28;20037;-76
2022/07/11 04:29:52;;;;;;;5.90;2.60;;;;;;;;;;5032165;28;20118;-76
2022/07/11 04:32:18;;;;;;;4.80;2.47;;;;;;;;;;5052380;28;20449;-75
2022/07/11 04:34:44;;;;;;;5.60;2.60;;;;;;;;;;5049325;28;20414;-75
2022/07/11 04:37:11;;;;;;;7.82;2.78;;;;;;;;;;5050407;28;20403;-75
2022/07/11 04:39:37;;;;;;;5.60;2.90;;;;;;;;;;5034850;28;20049;-75
2022/07/11 04:42:03;;;;;;;6.47;2.80;;;;;;;;;;5051723;28;20130;-76
2022/07/11 04:44:29;;;;;;;7.28;2.80;;;;;;;;;;5050959;28;20120;-76
2022/07/11 04:46:55;;;;;;;7.72;2.42;;;;;;;;;;5052598;28;20128;-76
2022/07/11 04:49:21;;;;;;;4.57;2.38;;;;;;;;;;5051389;28;20068;-76
2022/07/11 04:51:47;;;;;;;5.82;2.58;;;;;;;;;;5068517;28;20053;-76
2022/07/11 04:54:15;;;;;;;6.18;2.55;;;;;;;;;;5065801;28;20052;-76
2022/07/11 04:56:41;;;;;;;4.82;2.42;;;;;;;;;;5050646;28;20120;-76
2022/07/11 04:59:07;;;;;;;6.43;2.55;;;;;;;;;;5051786;28;20073;-76
2022/07/11 05:01:34;;;;;;;5.35;2.30;;;;;;;;;;5034889;28;20049;-76
2022/07/11 05:04:00;;;;;;;6.35;2.47;;;;;;;;;;5051931;28;20045;-76
2022/07/11 05:06:26;;;;;;;8.00;2.30;;;;;;;;;;5031071;28;20048;-76
2022/07/11 05:08:56;;;;;;;6.13;2.10;;;;;;;;;;5047798;28;20053;-76
2022/07/11 05:11:23;;;;;;;5.25;2.30;;;;;;;;;;5051647;28;20045;-76
2022/07/11 05:13:49;;;;;;;5.90;1.83;;;;;;;;;;5051847;28;20102;-76
2022/07/11 05:16:15;;;;;;;6.05;1.90;;;;;;;;;;5052461;28;20128;-76
2022/07/11 05:18:41;;;;;;;4.90;2.00;;;;;;;;;;5051164;28;20187;-75
2022/07/11 05:21:07;;;;;;;5.75;2.03;;;;;;;;;;5049046;28;20132;-76
2022/07/11 05:23:33;;;;;;;4.95;1.67;;;;;;;;;;5033837;28;20395;-75
2022/07/11 05:25:59;;;;;;;5.65;2.30;;;;;;;;;;5034410;28;20488;-75
2022/07/11 05:28:25;;;;;;;5.25;2.10;;;;;;;;;;5033551;28;20055;-75
2022/07/11 05:30:51;;;;;;;4.90;2.00;;;;;;;;;;5052368;28;20045;-76
2022/07/11 05:33:17;;;;;;;5.28;2.00;;;;;;;;;;5033896;28;20135;-77
2022/07/11 05:35:43;;;;;;;5.38;1.85;;;;;;;;;;5049588;28;20124;-76
2022/07/11 05:38:09;;;;;;;4.82;1.70;;;;;;;;;;5047778;28;20403;-76
2022/07/11 05:40:35;;;;;;;4.10;1.35;;;;;;;;;;5046595;28;20048;-76
2022/07/11 05:43:01;;;;;;;4.38;1.60;;;;;;;;;;5051275;28;20159;-77
2022/07/11 05:45:30;;;;;;;3.28;1.25;;;;;;;;;;5053172;28;20041;-77
2022/07/11 05:47:56;;;;;;;3.42;1.17;;;;;;;;;;5053807;28;20033;-75
2022/07/11 05:50:22;;;;;;;3.80;1.27;;;;;;;;;;5054634;28;20033;-76
2022/07/11 05:52:48;;;;;;;3.80;1.40;;;;;;;;;;5038515;28;20061;-77
2022/07/11 05:55:14;;;;;;;4.20;1.35;;;;;;;;;;5052862;28;20060;-77
2022/07/11 05:57:40;;;;;;;3.80;1.17;;;;;;;;;;5050904;28;20049;-77
2022/07/11 06:00:07;;;;;;;3.75;1.10;;;;;;;;;;5054049;28;20037;-76
2022/07/11 06:02:33;;;;;;;3.60;1.27;;;;;;;;;;5054632;28;20056;-76
2022/07/11 06:04:59;;;;;;;3.25;1.13;;;;;;;;;;5036665;28;20049;-76
2022/07/11 06:10:10;;;;;;;3.72;0.80;;;;;;;;;;5054769;28;20053;-76
2022/07/11 06:12:36;;;;;;;3.35;1.00;;;;;;;;;;5055567;28;20098;-76
2022/07/11 06:15:02;;;;;;;2.45;0.68;;;;;;;;;;5036448;28;20053;-77
2022/07/11 06:17:28;;;;;;;2.22;0.90;;;;;;;;;;5055281;28;20048;-76
2022/07/11 06:19:54;;;;;;;2.42;0.60;;;;;;;;;;5055510;28;20049;-76
2022/07/11 06:22:20;;;;;;;4.38;0.90;;;;;;;;;;5054762;28;20045;-76
2022/07/11 06:24:46;;;;;;;3.35;0.90;;;;;;;;;;5017266;28;20100;-76
2022/07/11 06:27:12;;;;;;;4.00;0.80;;;;;;;;;;5046289;28;20125;-76
2022/07/11 06:29:38;;;;;;;3.22;0.75;;;;;;;;;;5053377;28;20049;-76
2022/07/11 06:32:04;;;;;;;4.38;0.68;;;;;;;;;;5037441;28;20060;-76
2022/07/11 06:34:31;;;;;;;3.47;0.77;;;;;;;;;;5052281;28;20056;-76
2022/07/11 06:36:58;;;;;;;1.42;0.60;;;;;;;;;;5055000;28;20130;-76
2022/07/11 06:39:24;;;;;;;4.50;0.70;;;;;;;;;;5037002;28;20052;-77
2022/07/11 06:41:50;;;;;;;2.88;0.50;;;;;;;;;;5051909;28;20098;-76
2022/07/11 06:44:17;;;;;;;6.22;0.73;;;;;;;;;;5036053;28;20045;-76
2022/07/11 06:46:43;;;;;;;4.28;0.80;;;;;;;;;;5051960;28;20461;-77
2022/07/11 06:49:12;;;;;;;2.08;0.60;;;;;;;;;;5040100;28;20072;-77
2022/07/11 06:51:38;;;;;;;3.80;0.50;;;;;;;;;;5052314;28;20051;-75
2022/07/11 06:54:05;;;;;;;3.38;0.60;;;;;;;;;;5054689;28;20098;-78
2022/07/11 06:56:31;;;;;;;4.75;0.50;;;;;;;;;;5036390;28;20094;-78
2022/07/11 06:58:57;;;;;;;1.80;0.40;;;;;;;;;;5054663;28;20510;-79
2022/07/11 07:01:23;;;;;;;3.05;0.57;;;;;;;;;;5054804;28;20041;-79
2022/07/11 07:03:49;;;;;;;3.47;0.60;;;;;;;;;;5036538;28;20040;-76
2022/07/11 07:06:15;;;;;;;2.88;0.70;;;;;;;;;;5051871;28;20714;-79
2022/07/11 07:08:41;;;;;;;2.85;0.60;;;;;;;;;;5053852;28;20041;-78
2022/07/11 07:11:07;;;;;;;4.13;0.68;;;;;;;;;;5052984;28;20045;-76
2022/07/11 07:13:33;;;;;;;3.10;0.75;;;;;;;;;;5054335;28;20045;-77
2022/07/11 07:15:59;;;;;;;3.85;0.90;;;;;;;;;;5054314;28;20098;-78
2022/07/11 07:18:25;;;;;;;2.75;0.75;;;;;;;;;;5054179;28;20081;-78
2022/07/11 07:20:52;;;;;;;2.58;0.60;;;;;;;;;;5053502;28;20052;-78
2022/07/11 07:23:19;;;;;;;2.53;0.45;;;;;;;;;;5035095;28;20048;-78
2022/07/11 07:25:45;;;;;;;3.30;0.77;;;;;;;;;;5042518;28;20094;-78
2022/07/11 07:28:11;;;;;;;1.58;0.50;;;;;;;;;;5034015;28;20057;-78
2022/07/11 07:30:37;;;;;;;1.67;0.60;;;;;;;;;;5034125;28;20128;-78
2022/07/11 07:33:03;;;;;;;3.58;0.50;;;;;;;;;;5034265;28;20107;-78
2022/07/11 07:35:29;;;;;;;3.50;0.60;;;;;;;;;;5008261;28;20053;-78
2022/07/11 07:37:56;;;;;;;3.83;0.60;;;;;;;;;;5038103;28;20487;-77
2022/07/11 07:40:22;;;;;;;0.80;0.40;;;;;;;;;;5053889;28;20044;-78
2022/07/11 07:42:48;;;;;;;2.08;0.40;;;;;;;;;;5053197;28;20053;-78
2022/07/11 07:45:14;;;;;;;2.20;0.50;;;;;;;;;;5053078;28;20049;-78
2022/07/11 07:47:41;;;;;;;2.05;0.43;;;;;;;;;;5053722;28;20045;-78
2022/07/11 07:50:07;;;;;;;0.75;0.25;;;;;;;;;;5035814;28;20049;-78
2022/07/11 07:52:33;;;;;;;1.77;0.50;;;;;;;;;;5051582;28;20128;-78
2022/07/11 07:54:59;;;;;;;2.25;0.50;;;;;;;;;;5038448;28;20136;-78
2022/07/11 07:57:25;;;;;;;2.30;0.50;;;;;;;;;;5033630;28;20488;-77
2022/07/11 08:01:34;;;;;;;1.10;0.40;;;;;;;;;;5033506;28;20546;-78
2022/07/11 08:02:37;;;;;;;3.10;0.40;;;;;;;;;;5051531;28;20059;-78
2022/07/11 08:05:04;;;;;;;1.17;0.38;;;;;;;;;;5052464;28;20040;-78
2022/07/11 08:07:30;;;;;;;1.25;0.30;;;;;;;;;;5052021;28;20518;-77
2022/07/11 08:09:56;;;;;;;2.20;0.40;;;;;;;;;;5053118;28;20041;-77
2022/07/11 08:12:22;;;;;;;1.38;0.40;;;;;;;;;;5032566;28;20041;-77
2022/07/11 08:14:48;;;;;;;2.33;0.50;;;;;;;;;;5053182;28;20056;-77
2022/07/11 08:17:14;;;;;;;1.40;0.40;;;;;;;;;;5042650;28;20049;-78
2022/07/11 08:19:40;;;;;;;1.15;0.40;;;;;;;;;;5033163;28;20111;-78
2022/07/11 08:22:06;;;;;;;1.35;0.40;;;;;;;;;;5048575;28;20041;-78
2022/07/11 08:24:32;;;;;;;0.82;0.40;;;;;;;;;;5050523;28;20120;-78
2022/07/11 08:26:59;;;;;;;0.75;0.40;;;;;;;;;;5052506;28;20044;-77
2022/07/11 08:29:25;;;;;;;1.65;0.50;;;;;;;;;;5050788;28;20049;-78
2022/07/11 08:31:51;;;;;;;2.10;0.50;;;;;;;;;;5049091;28;20495;-78
2022/07/11 08:34:17;;;;;;;0.98;0.40;;;;;;;;;;5035006;28;20412;-78
2022/07/11 08:36:43;;;;;;;1.25;0.30;;;;;;;;;;5033843;28;20514;-78
2022/07/11 08:39:09;;;;;;;1.63;0.50;;;;;;;;;;5035122;28;20088;-78
2022/07/11 08:41:37;;;;;;;1.23;0.43;;;;;;;;;;5053047;28;20041;-77
2022/07/11 08:44:03;;;;;;;1.85;0.50;;;;;;;;;;5052641;28;20048;-77
2022/07/11 08:46:29;;;;;;;1.50;0.40;;;;;;;;;;5052212;28;20049;-78
2022/07/11 08:48:56;;;;;;;2.53;0.50;;;;;;;;;;5052822;28;20049;-78
2022/07/11 08:51:23;;;;;;;1.33;0.40;;;;;;;;;;5034531;28;20380;-77
2022/07/11 08:53:51;;;;;;;1.27;0.40;;;;;;;;;;5052347;28;20478;-76
2022/07/11 08:56:17;;;;;;;1.73;0.50;;;;;;;;;;5051554;28;20044;-76
2022/07/11 08:58:45;;;;;;;2.20;0.50;;;;;;;;;;5034329;28;20384;-76
2022/07/11 09:01:12;;;;;;;6.78;1.17;;;;;;;;;;5051945;28;20081;-76
2022/07/11 09:03:38;;;;;;;1.92;0.45;;;;;;;;;;5051265;28;20037;-76
2022/07/11 09:06:04;;;;;;;2.63;0.40;;;;;;;;;;5038294;28;20041;-77
2022/07/11 09:08:31;;;;;;;2.95;0.70;;;;;;;;;;5053211;28;20091;-77
2022/07/11 09:10:57;;;;;;;1.25;0.40;;;;;;;;;;5053556;28;20041;-76
2022/07/11 09:13:30;;;;;;;1.42;0.40;;;;;;;;;;5051179;28;20076;-76
2022/07/11 09:16:01;;;;;;;2.65;0.47;;;;;;;;;;5049961;28;20376;-76
2022/07/11 09:18:30;;;;;;;1.63;0.40;;;;;;;;;;5051780;28;20041;-76
2022/07/11 09:26:38;;;;;;;1.77;0.40;;;;;;;;;;5052297;28;20057;-75
2022/07/11 09:29:06;;;;;;;2.25;0.60;;;;;;;;;;5039155;28;20055;-75
2022/07/11 09:31:33;;;;;;;1.33;0.50;;;;;;;;;;5038672;28;20052;-76
2022/07/11 09:34:01;;;;;;;1.38;0.40;;;;;;;;;;5047615;28;20045;-76
2022/07/11 09:36:47;;;;;;;2.50;0.52;;;;;;;;;;5036138;28;20050;-75
2022/07/11 09:39:17;;;;;;;1.75;0.50;;;;;;;;;;5036059;28;20084;-75
2022/07/11 09:41:44;;;;;;;1.90;0.40;;;;;;;;;;5055485;28;20041;-76
2022/07/11 09:44:17;;;;;;;0.95;0.40;;;;;;;;;;5042946;28;20053;-76
2022/07/11 09:46:46;;;;;;;2.95;0.50;;;;;;;;;;5042056;28;20040;-76
2022/07/11 09:49:12;;;;;;;2.10;0.50;;;;;;;;;;5054587;28;20093;-76
2022/07/11 09:51:39;;;;;;;10.23;1.67;;;;;;;;;;5055833;28;20969;-75
2022/07/11 09:54:05;;;;;;;2.88;0.70;;;;;;;;;;5055668;28;20076;-76
2022/07/11 09:56:39;;;;;;;1.17;0.43;;;;;;;;;;5054644;28;20052;-76
2022/07/11 09:59:05;;;;;;;3.13;0.30;;;;;;;;;;5048761;28;20095;-76
2022/07/11 10:01:32;;;;;;;0.90;0.30;;;;;;;;;;5045356;28;20045;-76
2022/07/11 10:03:58;;;;;;;2.40;0.50;;;;;;;;;;5051815;28;20507;-76
2022/07/11 10:06:25;;;;;;;3.65;0.38;;;;;;;;;;5055255;28;20053;-76
2022/07/11 10:08:52;;;;;;;1.30;0.40;;;;;;;;;;5051056;28;20041;-76
2022/07/11 10:11:18;;;;;;;1.30;0.40;;;;;;;;;;5036983;28;20051;-76
2022/07/11 10:13:45;;;;;;;1.67;0.30;;;;;;;;;;5053615;28;20045;-76
2022/07/11 10:16:14;;;;;;;1.45;0.35;;;;;;;;;;5044241;28;20045;-76
2022/07/11 10:18:50;;;;;;;1.48;0.57;;;;;;;;;;5053104;28;20505;-76
2022/07/11 10:21:18;;;;;;;2.08;0.20;;;;;;;;;;5047268;28;20510;-76
2022/07/11 10:24:10;;;;;;;1.55;0.30;;;;;;;;;;5051395;28;20041;-76
2022/07/11 10:27:09;;;;;;;0.80;0.30;;;;;;;;;;5039544;28;20049;-76
2022/07/11 10:29:37;;;;;;;1.63;0.38;;;;;;;;;;4950626;28;20078;-76
2022/07/11 10:32:13;;;;;;;0.55;0.30;;;;;;;;;;4952935;28;20142;-76
2022/07/11 10:34:39;;;;;;;1.08;0.43;;;;;;;;;;4970304;28;20043;-76
2022/07/11 10:37:06;;;;;;;0.60;0.30;;;;;;;;;;4974163;28;20558;-76
2022/07/11 10:39:36;;;;;;;1.77;0.30;;;;;;;;;;4974122;28;20433;-76
2022/07/11 10:42:03;;;;;;;1.23;0.40;;;;;;;;;;4962561;28;20409;-75
2022/07/11 10:44:48;;;;;;;1.98;0.50;;;;;;;;;;4958293;28;20118;-76
2022/07/11 10:47:35;;;;;;;2.00;0.40;;;;;;;;;;4954618;28;20509;-76
2022/07/11 10:50:03;;;;;;;2.92;0.60;;;;;;;;;;4954475;29;20067;-76
2022/07/11 10:52:32;;;;;;;3.35;0.40;;;;;;;;;;4953889;28;20047;-76
2022/07/11 10:55:12;;;;;;;1.45;0.50;;;;;;;;;;4953783;28;20047;-75
2022/07/11 10:57:43;;;;;;;2.20;0.65;;;;;;;;;;4951309;28;20043;-76
2022/07/11 11:00:14;;;;;;;2.20;0.47;;;;;;;;;;4964883;28;21160;-76
2022/07/11 11:02:59;;;;;;;1.70;0.50;;;;;;;;;;4970801;28;20718;-76
2022/07/11 11:05:40;;;;;;;2.67;0.40;;;;;;;;;;5007881;28;20049;-76
2022/07/11 11:08:26;;;;;;;0.73;0.40;;;;;;;;;;5041900;28;20192;-76
2022/07/11 11:10:52;;;;;;;2.20;0.40;;;;;;;;;;5051902;28;20037;-76
2022/07/11 11:13:20;;;;;;;3.28;0.50;;;;;;;;;;5052750;28;20053;-75
2022/07/11 11:15:48;;;;;;;1.65;0.47;;;;;;;;;;5037987;28;20064;-76
2022/07/11 11:18:36;;;;;;;3.22;0.47;;;;;;;;;;5054490;28;20064;-76
2022/07/11 11:21:06;;;;;;;3.97;0.70;;;;;;;;;;5052678;28;20056;-76
2022/07/11 11:23:36;;;;;;;3.38;0.52;;;;;;;;;;5052735;28;20048;-76
2022/07/11 11:26:09;;;;;;;2.70;0.70;;;;;;;;;;5051519;28;20041;-76
2022/07/11 11:28:36;;;;;;;2.08;0.47;;;;;;;;;;5053104;28;20048;-76
2022/07/11 11:31:04;;;;;;;1.15;0.28;;;;;;;;;;5053248;28;20542;-76
2022/07/11 11:33:31;;;;;;;0.90;0.30;;;;;;;;;;5052620;28;20091;-76
2022/07/11 11:36:05;;;;;;;2.60;0.40;;;;;;;;;;5053204;28;20106;-75
2022/07/11 11:38:34;;;;;;;2.15;0.30;;;;;;;;;;5053065;28;20071;-76
2022/07/11 11:41:00;;;;;;;2.63;0.40;;;;;;;;;;5051889;28;20041;-75
2022/07/11 11:43:26;;;;;;;4.20;0.40;;;;;;;;;;5052007;28;20056;-75
2022/07/11 11:45:53;;;;;;;0.73;0.30;;;;;;;;;;5051775;28;20049;-75
2022/07/11 11:48:35;;;;;;;1.70;0.30;;;;;;;;;;5052738;28;20053;-75
2022/07/11 11:51:02;;;;;;;1.05;0.40;;;;;;;;;;5049741;28;20499;-76
2022/07/11 11:53:31;;;;;;;2.50;0.47;;;;;;;;;;5051744;28;20457;-76
2022/07/11 11:55:58;;;;;;;1.70;0.45;;;;;;;;;;5051949;28;20037;-76
2022/07/11 11:58:25;;;;;;;2.35;0.50;;;;;;;;;;5051769;28;20457;-76
2022/07/11 12:00:55;;;;;;;2.40;0.40;;;;;;;;;;5052082;28;20495;-76
2022/07/11 12:03:21;;;;;;;1.33;0.50;;;;;;;;;;5052938;28;20051;-76
2022/07/11 12:05:57;;;;;;;2.10;0.40;;;;;;;;;;5022341;28;20124;-76
2022/07/11 12:08:27;;;;;;;2.40;0.40;;;;;;;;;;5049598;28;20098;-76
2022/07/11 12:10:56;;;;;;;1.83;0.40;;;;;;;;;;5052258;28;20048;-76
2022/07/11 12:13:23;;;;;;;1.88;0.50;;;;;;;;;;5053291;28;20052;-76
2022/07/11 12:18:37;;;;;;;1.67;0.40;;;;;;;;;;5049837;28;20464;-74
2022/07/11 12:21:10;;;;;;;1.75;0.40;;;;;;;;;;5049629;28;20059;-76
2022/07/11 12:23:36;;;;;;;3.80;0.60;;;;;;;;;;5049011;28;20418;-76
2022/07/11 12:26:03;;;;;;;0.95;0.30;;;;;;;;;;5048662;28;20053;-75
2022/07/11 12:28:29;;;;;;;1.10;0.40;;;;;;;;;;5052097;28;20041;-75
2022/07/11 12:30:58;;;;;;;1.90;0.57;;;;;;;;;;5052099;28;20128;-76
2022/07/11 12:33:24;;;;;;;1.33;0.40;;;;;;;;;;5046405;28;20560;-76
2022/07/11 12:36:03;;;;;;;1.45;0.50;;;;;;;;;;5040959;28;20103;-75
2022/07/11 12:38:51;;;;;;;3.10;0.50;;;;;;;;;;5045192;28;20049;-76
2022/07/11 12:41:17;;;;;;;1.00;0.40;;;;;;;;;;5030257;28;20128;-73
2022/07/11 12:46:36;;;;;;;1.38;0.40;;;;;;;;;;5049625;28;20045;-74
2022/07/11 12:49:03;;;;;;;1.45;0.40;;;;;;;;;;5051033;28;20053;-74
2022/07/11 12:51:30;;;;;;;1.48;0.40;;;;;;;;;;5052215;28;20040;-73
2022/07/11 12:54:01;;;;;;;1.55;0.47;;;;;;;;;;5051433;28;20403;-74
2022/07/11 12:56:27;;;;;;;;;;;;;;;;;;5051782;28;20108;-74
2022/07/11 12:58:53;;;;;;;1.73;0.60;;;;;;;;;;5049866;28;19966;-73
2022/07/11 13:01:19;;;;;;;1.25;0.50;;;;;;;;;;5034675;28;20120;-74
2022/07/11 13:03:45;;;;;;;2.95;0.70;;;;;;;;;;5052474;28;20122;-74
2022/07/11 13:06:11;;;;;;;2.55;0.68;;;;;;;;;;5052415;28;20064;-74
2022/07/11 13:08:46;;;;;;;1.83;0.50;;;;;;;;;;5050071;28;20633;-74
2022/07/11 13:11:16;;;;;;;3.40;0.75;;;;;;;;;;5048305;28;20090;-73
2022/07/11 13:13:43;;;;;;;4.73;0.60;;;;;;;;;;5050784;28;20053;-74
2022/07/11 13:16:13;;;;;;;2.00;0.57;;;;;;;;;;5050718;28;20306;-74
2022/07/11 13:18:39;;;;;;;1.55;0.52;;;;;;;;;;5051799;28;20075;-73
2022/07/11 13:21:06;;;;;;;3.25;0.70;;;;;;;;;;5051237;28;20055;-75
2022/07/11 13:23:32;;;;;;;3.00;0.73;;;;;;;;;;5031666;28;20056;-72
2022/07/11 13:25:59;;;;;;;2.10;0.52;;;;;;;;;;5052232;28;20045;-75
2022/07/11 13:28:25;;;;;;;2.90;0.60;;;;;;;;;;5060746;28;20049;-77
2022/07/11 13:30:51;;;;;;;2.03;0.57;;;;;;;;;;5052646;28;20509;-79
2022/07/11 13:33:18;;;;;;;1.77;0.70;;;;;;;;;;5049684;28;20434;-72
2022/07/11 13:35:45;;;;;;;1.23;0.60;;;;;;;;;;5048805;28;20075;-73
2022/07/11 13:38:11;;;;;;;2.70;0.80;;;;;;;;;;5043816;28;20101;-72
2022/07/11 13:40:37;;;;;;;1.30;0.40;;;;;;;;;;5046815;28;20052;-72
2022/07/11 13:43:04;;;;;;;1.48;0.50;;;;;;;;;;5047313;28;20053;-72
2022/07/11 13:45:30;;;;;;;1.55;0.50;;;;;;;;;;5046344;28;20041;-73
2022/07/11 13:47:57;;;;;;;2.63;0.60;;;;;;;;;;5050746;28;20049;-72
2022/07/11 13:50:23;;;;;;;1.98;0.40;;;;;;;;;;5047163;28;20499;-72
2022/07/11 13:52:49;;;;;;;2.88;0.40;;;;;;;;;;5051707;28;20080;-72
2022/07/11 13:55:16;;;;;;;1.88;0.40;;;;;;;;;;5058412;28;20057;-72
2022/07/11 13:57:42;;;;;;;2.72;0.50;;;;;;;;;;5052445;28;20083;-73
2022/07/11 14:00:09;;;;;;;2.55;0.68;;;;;;;;;;5051455;28;20106;-72
2022/07/11 14:02:35;;;;;;;1.77;0.45;;;;;;;;;;5051574;28;20041;-72
2022/07/11 14:05:01;;;;;;;2.75;0.43;;;;;;;;;;5047644;28;20368;-73
2022/07/11 14:07:27;;;;;;;1.02;0.47;;;;;;;;;;5054655;28;20068;-72
2022/07/11 14:09:53;;;;;;;2.50;0.50;;;;;;;;;;5053456;28;20399;-73
2022/07/11 14:12:20;;;;;;;3.28;0.60;;;;;;;;;;5022516;28;20462;-72
2022/07/11 14:14:46;;;;;;;2.53;0.60;;;;;;;;;;5043442;28;20045;-74
2022/07/11 14:17:12;;;;;;;1.67;0.57;;;;;;;;;;5054875;28;20045;-72
2022/07/11 14:19:39;;;;;;;2.03;0.70;;;;;;;;;;5053518;28;20052;-72
2022/07/11 14:22:05;;;;;;;1.63;0.60;;;;;;;;;;5053726;28;20045;-73
2022/07/11 14:24:32;;;;;;;2.78;0.47;;;;;;;;;;5053109;28;20071;-73
2022/07/11 14:26:59;;;;;;;1.35;0.47;;;;;;;;;;5041972;28;20048;-72
2022/07/11 14:29:26;;;;;;;4.38;0.77;;;;;;;;;;5053963;28;20037;-73
2022/07/11 14:31:53;;;;;;;1.35;0.43;;;;;;;;;;5053860;28;20045;-72
2022/07/11 14:34:20;;;;;;;1.70;0.80;;;;;;;;;;5046006;28;20056;-71
2022/07/11 14:36:47;;;;;;;1.38;0.40;;;;;;;;;;5053047;28;20418;-72
2022/07/11 14:39:13;;;;;;;3.75;0.70;;;;;;;;;;5055191;28;20426;-73
2022/07/11 14:41:39;;;;;;;2.10;0.60;;;;;;;;;;5050068;28;20049;-72
2022/07/11 14:44:05;;;;;;;1.50;0.40;;;;;;;;;;5053803;28;20049;-71
2022/07/11 14:46:31;;;;;;;3.65;0.60;;;;;;;;;;5053948;28;20049;-71
2022/07/11 14:48:57;;;;;;;1.17;0.40;;;;;;;;;;5054116;28;20041;-72
2022/07/11 14:51:24;;;;;;;1.88;0.50;;;;;;;;;;5053945;28;20071;-71
2022/07/11 14:53:50;;;;;;;3.85;0.50;;;;;;;;;;5054908;28;20372;-72
2022/07/11 14:56:16;;;;;;;2.67;0.52;;;;;;;;;;5054696;28;20454;-72
2022/07/11 14:58:42;;;;;;;1.23;0.43;;;;;;;;;;5053935;28;20564;-74